Time;durP1;ratioP1;P1;durP2;ratioP2;P2;SDS_P1;SDS_P2;PMS_P1;PMS_P2;Temp;Humidity;BMP_temperature;BMP_pressure;BME280_temperature;BME280_humidity;BME280_pressure;Samples;Min_cycle;Max_cycle;Signal;HPM_P1;HPM_P2
2023/09/21 00:02:13;;;;;;;;;;;;;;;21.23;29.01;98128.28;4976038;28;1274;-77
2023/09/21 00:04:39;;;;;;;;;;;;;;;21.20;29.05;98115.81;4976246;28;942;-77
2023/09/21 00:07:05;;;;;;;;;;;;;;;21.20;29.10;98120.69;5015214;28;1918;-77
2023/09/21 00:09:32;;;;;;;;;;;;;;;21.19;29.26;98119.06;5067584;28;967;-77
2023/09/21 00:11:57;;;;;;;;;;;;;;;21.36;28.99;98119.94;5025569;28;1255;-77
2023/09/21 00:14:23;;;;;;;;;;;;;;;21.39;29.00;98116.22;5058202;28;1118;-77
2023/09/21 00:16:49;;;;;;;;;;;;;;;20.91;29.78;98126.97;5054401;28;992;-77
2023/09/21 00:19:16;;;;;;;;;;;;;;;21.08;29.56;98110.84;5038034;28;951;-77
2023/09/21 00:21:43;;;;;;;;;;;;;;;21.41;29.02;98113.75;5034456;28;1051;-77
2023/09/21 00:24:12;;;;;;;;;;;;;;;21.41;28.79;98108.09;5002028;28;1002;-77
2023/09/21 00:26:37;;;;;;;;;;;;;;;21.51;28.83;98109.88;5018489;28;1902;-77
2023/09/21 00:29:06;;;;;;;;;;;;;;;21.74;28.12;98106.06;5017892;28;981;-78
2023/09/21 00:31:31;;;;;;;;;;;;;;;21.82;28.06;98116.78;5010493;28;1115;-77
2023/09/21 00:33:58;;;;;;;;;;;;;;;21.28;28.96;98117.25;5004672;28;1249;-78
2023/09/21 00:36:24;;;;;;;;;;;;;;;21.39;28.99;98113.38;5003368;28;1189;-77
2023/09/21 00:38:51;;;;;;;;;;;;;;;21.51;28.80;98129.69;4981447;28;1359;-78
2023/09/21 00:41:17;;;;;;;;;;;;;;;21.30;28.86;98119.69;4956222;29;1167;-77
2023/09/21 00:43:43;;;;;;;;;;;;;;;21.58;28.40;98129.50;4956215;29;1305;-76
2023/09/21 00:46:09;;;;;;;;;;;;;;;21.38;28.79;98115.44;4956394;29;1915;-77
2023/09/21 00:48:38;;;;;;;;;;;;;;;21.11;29.24;98123.31;4956114;29;1056;-77
2023/09/21 00:51:12;;;;;;;;;;;;;;;21.25;29.00;98118.13;4956332;29;1085;-77
2023/09/21 00:53:39;;;;;;;;;;;;;;;21.32;28.70;98118.00;4956155;29;1297;-77
2023/09/21 00:56:09;;;;;;;;;;;;;;;21.21;29.12;98108.13;4956369;29;915;-77
2023/09/21 00:58:39;;;;;;;;;;;;;;;21.52;28.67;98119.97;4956301;29;916;-77
2023/09/21 01:01:05;;;;;;;;;;;;;;;21.52;28.32;98119.97;4956203;29;932;-77
2023/09/21 01:03:31;;;;;;;;;;;;;;;21.37;28.69;98119.50;4973932;28;968;-78
2023/09/21 01:05:57;;;;;;;;;;;;;;;21.36;28.43;98112.25;4975608;28;1902;-77
2023/09/21 01:08:28;;;;;;;;;;;;;;;21.40;28.79;98114.97;4975545;28;947;-77
2023/09/21 01:10:54;;;;;;;;;;;;;;;21.40;28.61;98109.31;4975586;28;1320;-77
2023/09/21 01:13:20;;;;;;;;;;;;;;;21.49;28.63;98112.34;5030807;28;935;-77
2023/09/21 01:15:46;;;;;;;;;;;;;;;21.35;28.57;98107.00;5017875;28;1236;-77
2023/09/21 01:18:12;;;;;;;;;;;;;;;21.45;28.59;98108.78;4997861;28;1115;-77
2023/09/21 01:20:37;;;;;;;;;;;;;;;21.64;28.39;98104.28;5015813;28;1076;-77
2023/09/21 01:23:14;;;;;;;;;;;;;;;21.53;28.34;98110.22;5018069;28;1210;-78
2023/09/21 01:25:44;;;;;;;;;;;;;;;21.42;28.40;98115.34;5001670;28;1020;-76
2023/09/21 01:28:11;;;;;;;;;;;;;;;21.65;28.36;98100.22;5017764;28;1914;-77
2023/09/21 01:30:38;;;;;;;;;;;;;;;21.42;28.44;98104.81;5018205;28;1225;-77
2023/09/21 01:33:04;;;;;;;;;;;;;;;21.33;28.62;98108.25;5018059;28;964;-77
2023/09/21 01:35:31;;;;;;;;;;;;;;;21.32;28.77;98112.31;5034470;28;891;-77
2023/09/21 01:37:57;;;;;;;;;;;;;;;21.21;28.87;98099.66;5017868;28;1105;-76
2023/09/21 01:40:23;;;;;;;;;;;;;;;21.11;29.32;98095.81;5017914;28;1173;-77
2023/09/21 01:42:48;;;;;;;;;;;;;;;21.20;28.74;98098.06;4994868;28;1248;-77
2023/09/21 01:45:14;;;;;;;;;;;;;;;21.04;28.95;98102.44;4994875;28;1029;-77
2023/09/21 01:47:40;;;;;;;;;;;;;;;21.10;29.04;98099.91;4994733;28;1983;-77
2023/09/21 01:50:10;;;;;;;;;;;;;;;21.18;28.75;98097.69;4997979;28;1266;-77
2023/09/21 01:52:36;;;;;;;;;;;;;;;21.29;28.59;98096.19;5013907;28;1387;-77
2023/09/21 01:55:03;;;;;;;;;;;;;;;21.23;28.67;98097.94;5014313;28;1507;-77
2023/09/21 01:57:28;;;;;;;;;;;;;;;21.21;29.01;98089.13;4997996;28;1344;-78
2023/09/21 01:59:54;;;;;;;;;;;;;;;21.16;28.87;98092.47;5014133;28;1278;-77
2023/09/21 02:02:20;;;;;;;;;;;;;;;21.17;28.97;98088.41;5014242;28;1451;-76
2023/09/21 02:04:47;;;;;;;;;;;;;;;21.58;28.11;98096.31;5014314;28;1039;-77
2023/09/21 02:07:14;;;;;;;;;;;;;;;21.55;28.25;98094.41;5014037;28;1902;-77
2023/09/21 02:09:40;;;;;;;;;;;;;;;21.60;27.98;98098.69;5013740;28;1035;-77
2023/09/21 02:12:06;;;;;;;;;;;;;;;21.26;28.81;98087.81;5014088;28;1131;-77
2023/09/21 02:14:32;;;;;;;;;;;;;;;21.31;28.72;98088.09;5000839;28;1427;-77
2023/09/21 02:16:58;;;;;;;;;;;;;;;21.62;27.96;98084.13;5000691;28;1109;-76
2023/09/21 02:19:23;;;;;;;;;;;;;;;21.53;28.08;98081.91;5017163;28;1704;-77
2023/09/21 02:21:50;;;;;;;;;;;;;;;21.08;28.91;98085.38;5000774;28;903;-78
2023/09/21 02:24:15;;;;;;;;;;;;;;;21.28;28.46;98083.28;5000873;28;1233;-77
2023/09/21 02:26:42;;;;;;;;;;;;;;;21.39;28.41;98082.25;5000393;28;1927;-77
2023/09/21 02:29:09;;;;;;;;;;;;;;;21.30;28.52;98075.19;5000749;28;1609;-77
2023/09/21 02:31:37;;;;;;;;;;;;;;;21.44;28.47;98076.06;5016143;28;1214;-78
2023/09/21 02:34:02;;;;;;;;;;;;;;;21.26;28.47;98079.31;4996918;28;1059;-78
2023/09/21 02:36:28;;;;;;;;;;;;;;;21.54;28.21;98083.50;4981305;28;1256;-77
2023/09/21 02:38:53;;;;;;;;;;;;;;;21.50;28.41;98082.78;4997138;28;1229;-78
2023/09/21 02:41:20;;;;;;;;;;;;;;;21.37;28.15;98085.53;4980982;28;1095;-77
2023/09/21 02:43:45;;;;;;;;;;;;;;;21.29;28.71;98090.53;4977299;28;1105;-77
2023/09/21 02:46:13;;;;;;;;;;;;;;;21.35;28.43;98084.38;4977430;28;1898;-77
2023/09/21 02:48:38;;;;;;;;;;;;;;;21.40;28.60;98090.31;4980340;28;1143;-77
2023/09/21 02:51:04;;;;;;;;;;;;;;;21.46;28.45;98099.88;4983502;28;1226;-77
2023/09/21 02:53:30;;;;;;;;;;;;;;;21.41;28.37;98099.59;5016513;28;1117;-76
2023/09/21 02:55:56;;;;;;;;;;;;;;;21.40;28.38;98098.00;5016397;28;1021;-78
2023/09/21 02:58:23;;;;;;;;;;;;;;;21.31;28.58;98098.63;5016437;28;1547;-77
2023/09/21 03:00:52;;;;;;;;;;;;;;;21.30;28.48;98097.84;5009109;28;1083;-77
2023/09/21 03:03:20;;;;;;;;;;;;;;;21.40;28.61;98083.84;5000020;28;1109;-77
2023/09/21 03:05:47;;;;;;;;;;;;;;;21.35;28.19;98088.03;5016173;28;1118;-77
2023/09/21 03:08:13;;;;;;;;;;;;;;;21.33;28.36;98079.94;4980184;28;1930;-77
2023/09/21 03:10:47;;;;;;;;;;;;;;;21.37;28.53;98096.84;4983581;28;1306;-77
2023/09/21 03:13:22;;;;;;;;;;;;;;;21.12;28.58;98086.09;4999660;28;1091;-76
2023/09/21 03:15:50;;;;;;;;;;;;;;;21.38;28.42;98097.66;4997764;28;1130;-77
2023/09/21 03:18:16;;;;;;;;;;;;;;;21.03;28.96;98095.16;4959482;28;1012;-77
2023/09/21 03:20:43;;;;;;;;;;;;;;;21.36;28.55;98100.13;4959888;28;1112;-78
2023/09/21 03:23:10;;;;;;;;;;;;;;;21.35;28.29;98098.53;4976743;28;1017;-77
2023/09/21 03:25:40;;;;;;;;;;;;;;;21.37;28.52;98088.38;4960827;28;1128;-77
2023/09/21 03:28:10;;;;;;;;;;;;;;;21.43;28.18;98085.81;4976696;28;1911;-77
2023/09/21 03:30:41;;;;;;;;;;;;;;;21.24;28.71;98087.44;4977257;28;1064;-77
2023/09/21 03:33:09;;;;;;;;;;;;;;;21.43;28.20;98074.47;4976650;28;1115;-77
2023/09/21 03:35:35;;;;;;;;;;;;;;;21.48;28.02;98080.41;4976762;28;1071;-77
2023/09/21 03:38:00;;;;;;;;;;;;;;;21.42;28.21;98081.38;4960480;28;1265;-77
2023/09/21 03:40:26;;;;;;;;;;;;;;;21.22;28.74;98085.03;4960770;28;880;-77
2023/09/21 03:42:55;;;;;;;;;;;;;;;20.98;28.89;98081.56;4975859;28;1197;-76
2023/09/21 03:45:24;;;;;;;;;;;;;;;21.07;28.96;98083.78;4982804;28;1001;-77
2023/09/21 03:47:51;;;;;;;;;;;;;;;20.99;29.07;98093.69;5035248;28;1913;-77
2023/09/21 03:50:17;;;;;;;;;;;;;;;21.05;28.74;98080.59;5018827;28;1341;-77
2023/09/21 03:52:43;;;;;;;;;;;;;;;21.22;28.34;98085.03;5018443;28;1159;-77
2023/09/21 03:55:17;;;;;;;;;;;;;;;20.79;29.12;98086.03;5018738;28;1207;-77
2023/09/21 03:57:46;;;;;;;;;;;;;;;21.26;28.35;98082.94;5018733;28;1076;-77
2023/09/21 04:03:06;;;;;;;;;;;;;;;21.35;28.29;98087.19;4975755;28;1010;-77
2023/09/21 04:05:35;;;;;;;;;;;;;;;21.28;28.30;98094.59;4959956;28;1120;-77
2023/09/21 04:08:01;;;;;;;;;;;;;;;21.18;28.67;98094.84;4959860;28;1988;-77
2023/09/21 04:10:27;;;;;;;;;;;;;;;21.22;28.60;98090.72;4984437;28;1466;-78
2023/09/21 04:12:55;;;;;;;;;;;;;;;21.51;28.08;98088.03;4992179;28;1268;-77
2023/09/21 04:15:21;;;;;;;;;;;;;;;21.36;28.43;98089.59;4984249;28;1336;-78
2023/09/21 04:17:47;;;;;;;;;;;;;;;21.34;28.19;98092.06;4968016;28;1510;-77
2023/09/21 04:20:15;;;;;;;;;;;;;;;21.20;28.55;98093.19;5004515;28;1330;-77
2023/09/21 04:22:42;;;;;;;;;;;;;;;21.08;28.57;98094.66;4998080;28;1238;-77
2023/09/21 04:25:13;;;;;;;;;;;;;;;21.35;28.23;98098.53;4991544;28;1597;-77
2023/09/21 04:27:46;;;;;;;;;;;;;;;21.16;28.50;98095.31;4950915;28;1906;-77
2023/09/21 04:30:16;;;;;;;;;;;;;;;21.25;28.39;98095.50;4953374;28;1321;-77
2023/09/21 04:32:45;;;;;;;;;;;;;;;21.40;28.37;98089.50;4982211;28;1556;-77
2023/09/21 04:35:10;;;;;;;;;;;;;;;21.40;28.25;98092.34;4947918;28;1618;-77
2023/09/21 04:37:38;;;;;;;;;;;;;;;21.09;28.63;98103.97;4969079;28;1567;-77
2023/09/21 04:40:10;;;;;;;;;;;;;;;21.28;28.65;98105.91;5006417;28;1592;-78
2023/09/21 04:42:39;;;;;;;;;;;;;;;21.36;28.53;98100.13;5011408;28;1564;-77
2023/09/21 04:45:09;;;;;;;;;;;;;;;21.03;28.85;98106.50;5004210;28;1529;-78
2023/09/21 04:47:36;;;;;;;;;;;;;;;21.28;28.73;98099.47;5033685;28;1975;-76
2023/09/21 04:50:02;;;;;;;;;;;;;;;21.20;28.91;98104.50;5017547;28;1576;-78
2023/09/21 04:52:30;;;;;;;;;;;;;;;21.24;28.29;98110.88;5017487;28;1459;-77
2023/09/21 04:54:55;;;;;;;;;;;;;;;21.43;28.20;98109.25;5036519;28;1498;-77
2023/09/21 04:57:22;;;;;;;;;;;;;;;21.43;28.18;98105.63;5043785;28;1532;-77
2023/09/21 04:59:49;;;;;;;;;;;;;;;21.35;28.47;98104.19;5017091;28;1709;-77
2023/09/21 05:02:15;;;;;;;;;;;;;;;21.45;28.19;98103.13;5044061;28;1095;-77
2023/09/21 05:04:41;;;;;;;;;;;;;;;21.31;28.57;98105.06;5044043;28;1029;-78
2023/09/21 05:07:06;;;;;;;;;;;;;;;21.18;28.77;98098.47;5043672;28;1971;-77
2023/09/21 05:09:33;;;;;;;;;;;;;;;21.57;28.17;98105.28;5037382;28;1712;-77
2023/09/21 05:11:59;;;;;;;;;;;;;;;21.39;28.48;98105.69;5040822;28;1642;-77
2023/09/21 05:14:25;;;;;;;;;;;;;;;21.39;28.64;98105.69;5027256;28;1625;-77
2023/09/21 05:16:52;;;;;;;;;;;;;;;21.01;29.22;98102.53;5043972;28;1782;-78
2023/09/21 05:19:18;;;;;;;;;;;;;;;21.13;28.94;98099.00;5060809;28;1081;-77
2023/09/21 05:21:44;;;;;;;;;;;;;;;21.11;29.13;98095.81;5044446;28;1013;-77
2023/09/21 05:24:10;;;;;;;;;;;;;;;21.37;28.47;98096.06;5060824;28;1076;-77
2023/09/21 05:26:36;;;;;;;;;;;;;;;20.92;29.27;98099.50;5062879;28;1989;-77
2023/09/21 05:29:02;;;;;;;;;;;;;;;20.93;29.17;98093.38;5044502;28;993;-77
2023/09/21 05:31:28;;;;;;;;;;;;;;;20.78;29.78;98092.94;5045272;28;1006;-78
2023/09/21 05:33:54;;;;;;;;;;;;;;;21.13;28.88;98087.69;5045282;28;847;-77
2023/09/21 05:36:21;;;;;;;;;;;;;;;21.30;28.84;98103.50;5028642;28;876;-78
2023/09/21 05:38:46;;;;;;;;;;;;;;;21.17;28.97;98102.53;5044790;28;1147;-77
2023/09/21 05:41:12;;;;;;;;;;;;;;;21.32;28.53;98100.22;5045145;28;1101;-77
2023/09/21 05:43:37;;;;;;;;;;;;;;;21.46;28.22;98099.88;5003632;28;1157;-77
2023/09/21 05:46:03;;;;;;;;;;;;;;;20.98;29.32;98100.56;5020134;28;2008;-78
2023/09/21 05:48:29;;;;;;;;;;;;;;;21.00;29.16;98100.94;5004005;28;938;-77
2023/09/21 05:50:54;;;;;;;;;;;;;;;21.32;29.02;98106.66;5012148;28;1549;-77
2023/09/21 05:53:20;;;;;;;;;;;;;;;21.04;29.21;98105.28;4990342;28;1618;-77
2023/09/21 05:55:46;;;;;;;;;;;;;;;21.21;28.98;98103.25;5004114;28;1285;-77
2023/09/21 05:58:11;;;;;;;;;;;;;;;20.94;29.16;98063.09;5004301;28;1006;-77
2023/09/21 06:00:37;;;;;;;;;;;;;;;21.21;29.09;98103.25;5004253;28;1002;-77
2023/09/21 06:03:02;;;;;;;;;;;;;;;21.41;28.65;98108.09;5020391;28;1073;-77
2023/09/21 06:05:29;;;;;;;;;;;;;;;21.52;28.68;98111.47;5012782;28;1499;-78
2023/09/21 06:07:54;;;;;;;;;;;;;;;21.10;29.21;98116.88;4981702;28;1914;-77
2023/09/21 06:10:23;;;;;;;;;;;;;;;21.19;29.17;98114.25;4981589;28;1017;-77
2023/09/21 06:12:50;;;;;;;;;;;;;;;21.48;28.69;98117.19;4977943;28;982;-77
2023/09/21 06:15:16;;;;;;;;;;;;;;;21.12;29.24;98122.88;4964247;28;1279;-77
2023/09/21 06:17:41;;;;;;;;;;;;;;;20.99;29.73;98116.31;5017113;28;1080;-77
2023/09/21 06:20:07;;;;;;;;;;;;;;;21.39;28.88;98121.88;5017190;28;997;-77
2023/09/21 06:22:32;;;;;;;;;;;;;;;21.16;29.11;98119.97;4980890;28;1010;-77
2023/09/21 06:24:59;;;;;;;;;;;;;;;21.23;29.26;98114.94;4997417;28;906;-77
2023/09/21 06:27:25;;;;;;;;;;;;;;;21.16;29.16;98126.44;4965322;28;2017;-77
2023/09/21 06:29:51;;;;;;;;;;;;;;;21.28;29.23;98125.72;4997373;28;1049;-77
2023/09/21 06:32:18;;;;;;;;;;;;;;;21.21;29.19;98128.72;4981097;28;992;-77
2023/09/21 06:34:44;;;;;;;;;;;;;;;21.25;29.46;98123.78;4965530;28;919;-77
2023/09/21 06:37:10;;;;;;;;;;;;;;;21.37;28.95;98135.69;4996985;28;984;-77
2023/09/21 06:39:35;;;;;;;;;;;;;;;21.29;29.39;98121.66;4964768;28;1476;-77
2023/09/21 06:42:01;;;;;;;;;;;;;;;21.39;28.94;98121.88;4981210;28;1129;-78
2023/09/21 06:44:29;;;;;;;;;;;;;;;21.20;29.56;98129.97;4979515;28;1408;-77
2023/09/21 06:46:55;;;;;;;;;;;;;;;21.30;29.43;98123.31;5016231;28;1969;-77
2023/09/21 06:49:21;;;;;;;;;;;;;;;21.27;29.33;98132.63;5016376;28;1645;-77
2023/09/21 06:51:49;;;;;;;;;;;;;;;21.07;29.55;98129.06;4992746;28;1637;-77
2023/09/21 06:54:17;;;;;;;;;;;;;;;21.21;29.40;98134.41;5042911;28;1627;-76
2023/09/21 06:56:43;;;;;;;;;;;;;;;21.20;29.40;98132.81;5045731;28;1633;-78
2023/09/21 06:59:09;;;;;;;;;;;;;;;21.37;29.08;98141.34;5040182;28;1602;-78
2023/09/21 07:01:34;;;;;;;;;;;;;;;21.51;28.85;98141.81;5058273;28;1550;-77
2023/09/21 07:04:00;;;;;;;;;;;;;;;21.53;29.06;98142.16;5040564;28;1443;-78
2023/09/21 07:06:25;;;;;;;;;;;;;;;21.09;29.82;98135.09;5036899;28;1967;-77
2023/09/21 07:08:52;;;;;;;;;;;;;;;21.26;29.41;98139.53;5040279;28;1470;-78
2023/09/21 07:11:19;;;;;;;;;;;;;;;21.38;29.34;98142.94;5058288;28;867;-77
2023/09/21 07:13:46;;;;;;;;;;;;;;;21.59;29.06;98142.41;5024077;28;925;-78
2023/09/21 07:16:12;;;;;;;;;;;;;;;21.62;28.63;98147.22;5040574;28;882;-78
2023/09/21 07:18:39;;;;;;;;;;;;;;;21.53;29.09;98139.31;5057891;28;899;-78
2023/09/21 07:21:05;;;;;;;;;;;;;;;21.04;29.69;98147.72;5023978;28;1131;-78
2023/09/21 07:23:31;;;;;;;;;;;;;;;21.38;29.50;98148.59;5023773;28;1131;-78
2023/09/21 07:25:57;;;;;;;;;;;;;;;21.33;29.43;98145.03;5023675;28;876;-78
2023/09/21 07:28:22;;;;;;;;;;;;;;;21.28;29.41;98142.72;5023171;28;1906;-78
2023/09/21 07:30:51;;;;;;;;;;;;;;;21.62;29.19;98149.25;5015751;28;1598;-77
2023/09/21 07:33:16;;;;;;;;;;;;;;;21.51;29.02;98146.69;5036799;28;1119;-77
2023/09/21 07:35:41;;;;;;;;;;;;;;;21.72;28.57;98146.16;5020330;28;959;-78
2023/09/21 07:38:07;;;;;;;;;;;;;;;21.54;29.03;98154.28;5019870;28;956;-77
2023/09/21 07:40:33;;;;;;;;;;;;;;;21.59;28.89;98156.56;5036728;28;929;-78
2023/09/21 07:42:58;;;;;;;;;;;;;;;21.44;29.15;98146.84;5019836;28;1057;-77
2023/09/21 07:45:24;;;;;;;;;;;;;;;21.34;29.37;98143.00;5036607;28;1004;-79
2023/09/21 07:47:50;;;;;;;;;;;;;;;21.40;29.46;98157.44;5037397;28;1898;-77
2023/09/21 07:50:18;;;;;;;;;;;;;;;21.30;29.47;98153.66;5019767;28;956;-77
2023/09/21 07:52:45;;;;;;;;;;;;;;;21.16;30.05;98148.28;5003558;28;1745;-78
2023/09/21 07:55:11;;;;;;;;;;;;;;;21.35;29.29;98149.47;5037237;28;927;-78
2023/09/21 07:57:39;;;;;;;;;;;;;;;21.31;29.59;98156.03;5019394;28;1008;-78
2023/09/21 08:00:06;;;;;;;;;;;;;;;21.63;29.05;98154.47;5036234;28;940;-78
2023/09/21 08:02:32;;;;;;;;;;;;;;;21.64;28.98;98146.75;5036292;28;907;-77
2023/09/21 08:04:57;;;;;;;;;;;;;;;21.26;29.73;98131.03;5036035;28;896;-78
2023/09/21 08:07:26;;;;;;;;;;;;;;;21.52;29.13;98142.59;5019477;28;1894;-78
2023/09/21 08:09:54;;;;;;;;;;;;;;;21.39;29.57;98144.53;5037121;28;950;-77
2023/09/21 08:12:20;;;;;;;;;;;;;;;21.45;29.35;98132.25;5033371;28;1528;-78
2023/09/21 08:14:46;;;;;;;;;;;;;;;21.44;29.32;98146.84;5056809;28;1672;-78
2023/09/21 08:17:11;;;;;;;;;;;;;;;21.28;29.54;98145.53;5056280;28;1632;-77
2023/09/21 08:19:39;;;;;;;;;;;;;;;21.61;29.04;98139.97;5038776;28;1482;-78
2023/09/21 08:22:04;;;;;;;;;;;;;;;21.46;29.57;98145.16;4995611;28;1473;-78
2023/09/21 08:24:31;;;;;;;;;;;;;;;21.40;29.47;98146.13;5038635;28;1542;-78
2023/09/21 08:26:57;;;;;;;;;;;;;;;21.38;29.55;98142.94;5038476;28;1914;-77
2023/09/21 08:29:22;;;;;;;;;;;;;;;21.67;28.83;98132.53;5037670;28;1621;-77
2023/09/21 08:31:48;;;;;;;;;;;;;;;21.54;29.35;98131.63;5038276;28;1545;-77
2023/09/21 08:34:15;;;;;;;;;;;;;;;21.53;29.30;98132.88;5038730;28;1465;-77
2023/09/21 08:36:44;;;;;;;;;;;;;;;21.58;29.13;98129.50;5038758;28;1486;-78
2023/09/21 08:39:10;;;;;;;;;;;;;;;21.72;28.87;98134.81;5013042;28;1523;-78
2023/09/21 08:41:36;;;;;;;;;;;;;;;21.73;28.83;98125.09;5038765;28;1545;-77
2023/09/21 08:44:02;;;;;;;;;;;;;;;21.57;29.36;98125.09;5038610;28;1556;-77
2023/09/21 08:46:28;;;;;;;;;;;;;;;21.06;30.21;98130.28;5056119;28;1949;-79
2023/09/21 08:48:58;;;;;;;;;;;;;;;21.07;30.24;98134.72;5017001;28;1503;-78
2023/09/21 08:51:23;;;;;;;;;;;;;;;20.79;30.52;98131.28;5038795;28;1230;-78
2023/09/21 08:53:51;;;;;;;;;;;;;;;20.87;30.46;98125.47;5014529;28;1368;-78
2023/09/21 08:56:18;;;;;;;;;;;;;;;21.37;29.71;98121.53;5009562;28;1560;-78
2023/09/21 08:58:44;;;;;;;;;;;;;;;21.38;29.80;98120.28;5012309;28;1524;-78
2023/09/21 09:01:09;;;;;;;;;;;;;;;21.38;29.71;98120.28;4992748;28;1537;-78
2023/09/21 09:03:35;;;;;;;;;;;;;;;21.22;30.25;98124.66;5001870;28;1681;-78
2023/09/21 09:06:00;;;;;;;;;;;;;;;21.21;30.32;98123.06;4999202;28;1565;-78
2023/09/21 09:08:26;;;;;;;;;;;;;;;21.39;29.78;98116.22;5005651;28;1980;-78
2023/09/21 09:10:53;;;;;;;;;;;;;;;21.45;29.55;98120.13;5017587;28;1362;-78
2023/09/21 09:13:40;;;;;;;;;;;;;;;21.47;29.44;98112.00;5027070;28;1598;-78
2023/09/21 09:16:07;;;;;;;;;;;;;;;21.54;29.43;98123.13;5027136;28;1902;-78
2023/09/21 09:18:34;;;;;;;;;;;;;;;21.39;29.88;98119.84;5009466;28;1589;-79
2023/09/21 09:21:01;;;;;;;;;;;;;;;21.46;29.50;98110.41;5002650;28;1721;-78
2023/09/21 09:23:27;;;;;;;;;;;;;;;21.46;29.73;98114.03;5020562;28;1627;-78
2023/09/21 09:25:54;;;;;;;;;;;;;;;21.65;29.54;98118.00;5054130;28;1567;-79
2023/09/21 09:28:21;;;;;;;;;;;;;;;21.41;29.62;98105.28;5038244;28;1910;-77
2023/09/21 09:30:48;;;;;;;;;;;;;;;21.58;29.59;98106.84;5055370;28;1614;-77
2023/09/21 09:33:15;;;;;;;;;;;;;;;21.57;29.66;98106.06;5037909;28;1145;-78
2023/09/21 09:35:45;;;;;;;;;;;;;;;21.42;29.96;98098.38;5038229;28;963;-78
2023/09/21 09:38:11;;;;;;;;;;;;;;;21.27;29.87;98101.50;5038688;28;903;-78
2023/09/21 09:40:37;;;;;;;;;;;;;;;21.33;29.78;98113.91;5037920;28;870;-78
2023/09/21 09:43:03;;;;;;;;;;;;;;;21.38;29.82;98103.31;5059224;28;1036;-78
2023/09/21 09:45:30;;;;;;;;;;;;;;;21.54;29.67;98106.94;5041831;28;902;-78
2023/09/21 09:47:57;;;;;;;;;;;;;;;21.51;29.50;98102.19;5059107;28;1993;-77
2023/09/21 09:50:26;;;;;;;;;;;;;;;21.56;29.51;98106.53;5059525;28;976;-78
2023/09/21 09:53:10;;;;;;;;;;;;;;;21.46;29.77;98110.41;5041975;28;952;-77
2023/09/21 09:55:36;;;;;;;;;;;;;;;21.16;30.27;98109.44;5041902;28;960;-77
2023/09/21 09:58:02;;;;;;;;;;;;;;;21.61;29.54;98111.66;5059234;28;996;-78
2023/09/21 10:00:28;;;;;;;;;;;;;;;21.72;29.43;98120.66;5059293;28;918;-78
2023/09/21 10:02:55;;;;;;;;;;;;;;;21.31;29.84;98116.41;5059067;28;1002;-78
2023/09/21 10:05:20;;;;;;;;;;;;;;;21.54;29.62;98111.81;5041492;28;889;-78
2023/09/21 10:07:49;;;;;;;;;;;;;;;21.46;29.86;98107.56;5041438;28;1980;-78
2023/09/21 10:10:20;;;;;;;;;;;;;;;21.53;29.82;98104.56;5041313;28;975;-78
2023/09/21 10:12:45;;;;;;;;;;;;;;;21.61;29.68;98110.84;5025349;28;1179;-78
2023/09/21 10:15:14;;;;;;;;;;;;;;;21.49;29.85;98109.50;5041298;28;840;-78
2023/09/21 10:17:41;;;;;;;;;;;;;;;21.53;29.54;98115.88;5059097;28;1944;-78
2023/09/21 10:20:14;;;;;;;;;;;;;;;21.56;29.76;98110.13;5041602;28;877;-78
2023/09/21 10:22:42;;;;;;;;;;;;;;;21.25;30.29;98112.47;5041759;28;966;-78
2023/09/21 10:25:08;;;;;;;;;;;;;;;21.47;29.84;98100.66;5004263;28;1419;-78
2023/09/21 10:27:33;;;;;;;;;;;;;;;21.53;29.74;98110.22;5016616;28;2238;-78
2023/09/21 10:30:06;;;;;;;;;;;;;;;21.41;30.08;98105.28;5016501;28;1105;-77
2023/09/21 10:32:50;;;;;;;;;;;;;;;21.27;30.09;98098.66;5016622;28;1009;-77
2023/09/21 10:35:18;;;;;;;;;;;;;;;21.30;30.18;98092.16;5016216;28;1043;-78
2023/09/21 10:37:44;;;;;;;;;;;;;;;21.28;30.25;98094.59;4974001;28;1288;-77
2023/09/21 10:40:18;;;;;;;;;;;;;;;21.47;30.00;98100.66;4961529;28;947;-78
2023/09/21 10:42:43;;;;;;;;;;;;;;;21.71;29.29;98093.59;4977171;28;1307;-78
2023/09/21 10:45:10;;;;;;;;;;;;;;;21.42;29.92;98087.84;4961490;28;986;-78
2023/09/21 10:47:47;;;;;;;;;;;;;;;21.52;29.77;98091.66;4977076;28;1910;-77
2023/09/21 10:50:22;;;;;;;;;;;;;;;21.55;29.91;98090.75;4977084;28;962;-78
2023/09/21 10:52:49;;;;;;;;;;;;;;;21.57;29.74;98093.94;4957036;28;934;-79
2023/09/21 10:55:16;;;;;;;;;;;;;;;21.52;29.71;98097.31;4922874;29;976;-78
2023/09/21 10:57:42;;;;;;;;;;;;;;;21.64;29.52;98088.09;4922914;29;954;-78
2023/09/21 11:00:08;;;;;;;;;;;;;;;21.84;29.08;98085.94;4938725;29;954;-78
2023/09/21 11:02:40;;;;;;;;;;;;;;;21.55;30.04;98085.09;4967573;28;957;-78
2023/09/21 11:05:09;;;;;;;;;;;;;;;21.41;30.23;98085.47;4996015;28;1058;-78
2023/09/21 11:07:36;;;;;;;;;;;;;;;21.57;29.86;98082.63;4999017;28;1910;-77
2023/09/21 11:10:06;;;;;;;;;;;;;;;21.72;29.58;98083.06;5001299;28;1549;-78
2023/09/21 11:12:32;;;;;;;;;;;;;;;21.14;30.65;98072.31;5006249;28;1561;-77
2023/09/21 11:14:58;;;;;;;;;;;;;;;21.39;30.03;98074.56;5008034;28;1537;-78
2023/09/21 11:17:24;;;;;;;;;;;;;;;21.67;29.79;98060.94;4996290;28;1003;-78
2023/09/21 11:19:49;;;;;;;;;;;;;;;21.55;29.87;98062.44;4990071;28;1700;-78
2023/09/21 11:22:15;;;;;;;;;;;;;;;21.23;30.36;98068.84;4995819;28;1590;-78
2023/09/21 11:24:41;;;;;;;;;;;;;;;21.49;29.78;98065.00;5007725;28;1571;-78
2023/09/21 11:27:06;;;;;;;;;;;;;;;21.54;29.69;98053.16;4998686;28;2010;-78
2023/09/21 11:29:33;;;;;;;;;;;;;;;21.51;29.69;98044.75;5015187;28;1656;-78
2023/09/21 11:32:00;;;;;;;;;;;;;;;21.45;29.87;98047.34;5015353;28;1399;-77
2023/09/21 11:34:26;;;;;;;;;;;;;;;21.18;30.62;98056.03;5014801;28;1468;-78
2023/09/21 11:36:52;;;;;;;;;;;;;;;21.49;29.87;98048.00;5014857;28;1447;-77
2023/09/21 11:39:22;;;;;;;;;;;;;;;21.70;29.76;98051.53;5014736;28;2001;-78
2023/09/21 11:41:51;;;;;;;;;;;;;;;21.61;29.74;98049.34;5015280;28;1402;-77
2023/09/21 11:44:17;;;;;;;;;;;;;;;21.84;29.52;98037.78;5015013;28;1123;-77
2023/09/21 11:46:43;;;;;;;;;;;;;;;21.71;29.70;98034.13;5015098;28;1969;-77
2023/09/21 11:49:10;;;;;;;;;;;;;;;21.46;30.07;98037.59;5015119;28;935;-77
2023/09/21 11:51:36;;;;;;;;;;;;;;;21.67;29.62;98024.91;5015090;28;1105;-76
2023/09/21 11:54:04;;;;;;;;;;;;;;;21.75;29.76;98031.97;5014607;28;948;-77
2023/09/21 11:56:30;;;;;;;;;;;;;;;21.81;29.61;98035.88;5014788;28;953;-76
2023/09/21 11:58:58;;;;;;;;;;;;;;;21.74;29.68;98041.72;5016309;28;1464;-78
2023/09/21 12:01:27;;;;;;;;;;;;;;;21.62;29.70;98036.78;5029047;28;1450;-77
2023/09/21 12:03:53;;;;;;;;;;;;;;;21.68;29.70;98039.88;4999875;28;1358;-77
2023/09/21 12:06:19;;;;;;;;;;;;;;;21.56;29.84;98041.41;5016397;28;1977;-77
2023/09/21 12:08:45;;;;;;;;;;;;;;;21.96;29.14;98036.25;5032126;28;992;-78
2023/09/21 12:11:11;;;;;;;;;;;;;;;21.92;29.55;98035.59;5015881;28;1031;-78
2023/09/21 12:13:37;;;;;;;;;;;;;;;21.55;30.04;98034.94;5032256;28;924;-79
2023/09/21 12:16:03;;;;;;;;;;;;;;;21.52;30.19;98029.34;5017185;28;946;-78
2023/09/21 12:18:29;;;;;;;;;;;;;;;21.55;30.18;98034.13;5017224;28;962;-78
2023/09/21 12:20:57;;;;;;;;;;;;;;;21.48;30.10;98012.47;5017152;28;950;-78
2023/09/21 12:23:23;;;;;;;;;;;;;;;21.41;30.43;98023.19;5016843;28;843;-77
2023/09/21 12:25:49;;;;;;;;;;;;;;;21.06;30.88;98012.25;5015656;28;1290;-78
2023/09/21 12:28:14;;;;;;;;;;;;;;;21.33;30.33;98022.56;5016711;28;1981;-78
2023/09/21 12:30:44;;;;;;;;;;;;;;;21.58;29.92;98016.25;5032218;28;966;-77
2023/09/21 12:33:11;;;;;;;;;;;;;;;21.61;29.95;98015.38;5021405;28;1083;-77
2023/09/21 12:35:36;;;;;;;;;;;;;;;21.48;30.04;98009.63;5037720;28;1018;-76
2023/09/21 12:38:02;;;;;;;;;;;;;;;21.42;30.19;98014.25;5037382;28;956;-77
2023/09/21 12:40:28;;;;;;;;;;;;;;;21.71;29.52;98019.13;5020829;28;927;-76
2023/09/21 12:42:54;;;;;;;;;;;;;;;21.29;30.43;98016.94;5020748;28;1122;-77
2023/09/21 12:45:23;;;;;;;;;;;;;;;21.40;30.03;98010.25;5020796;28;1106;-77
2023/09/21 12:47:48;;;;;;;;;;;;;;;21.43;30.20;98015.03;5004778;28;1914;-77
2023/09/21 12:50:14;;;;;;;;;;;;;;;21.35;30.20;98014.44;5037250;28;1108;-77
2023/09/21 12:52:42;;;;;;;;;;;;;;;21.30;30.17;98009.31;5020977;28;1245;-77
2023/09/21 12:55:11;;;;;;;;;;;;;;;21.19;30.62;98000.22;5020735;28;1120;-77
2023/09/21 12:57:37;;;;;;;;;;;;;;;21.74;29.71;98013.38;5037332;28;950;-77
2023/09/21 13:00:08;;;;;;;;;;;;;;;21.78;29.28;98007.63;5037469;28;1066;-77
2023/09/21 13:02:33;;;;;;;;;;;;;;;21.53;29.92;98002.63;5017784;28;995;-77